Weather observations for the past three days for
La Grange, Fayette Regional Air Center Airport
Imperial (Metric)
Date Time (cdt) Wind (mph) Vis. (mi.) Weather Sky Cond. Temperature (ºF) Relative Humidity Wind Chill (°F) Heat Index (°F) Pressure Precipitation (in)
Air Dwpt 6 hour altimeter (in) sea level (mb) 1 hr 3 hr 6 hr
Max. Min.
05 18:15 E 7 10.00 Fair CLR 96.6 67.6 39% 101 29.84 0.0
05 17:55 Vrbl 6 10.00 Fair CLR 96.6 68.2 40% 102 29.84 0.0
05 17:35 Vrbl 6 10.00 Fair CLR 96.6 68.2 40% 102 29.84 0.0
05 17:15 E 7 10.00 Fair CLR 96.4 68.9 41% 102 29.83 0.0
05 16:55 Vrbl 5 10.00 Fair CLR 96.1 69.8 43% 103 29.84 0.0
05 16:35 E 6 10.00 Fair CLR 96.3 70.3 43% 103 29.84 0.0
05 16:15 E 8 10.00 Fair CLR 96.3 70.7 44% 104 29.84 0.0
05 15:55 SE 9 10.00 Fair CLR 96.1 71.4 45% 104 29.85 0.0
05 15:35 E 9 10.00 Fair CLR 96.4 71.6 45% 105 29.86 0.0
05 15:15 SE 8 10.00 Fair CLR 96.1 71.2 45% 104 29.87 0.0
05 14:55 Vrbl 7 10.00 A Few Clouds FEW120 96.3 70.2 43% 103 29.87 0.0
05 12:55 Calm 10.00 Mostly Cloudy BKN048 BKN065 92.7 72 92.8 75.4 51% 101 29.93 0.0
05 12:35 W 6 10.00 Mostly Cloudy SCT048 BKN060 BKN080 BKN090 90.9 72.3 55% 99 29.94 0.0
05 12:15 Vrbl 3 10.00 Mostly Cloudy FEW060 SCT080 BKN100 90.7 72.7 56% 99 29.95 0.0
05 11:55 S 5 10.00 Partly Cloudy SCT090 SCT110 88.7 72.7 59% 96 29.96 0.0
05 11:35 W 3 10.00 Partly Cloudy FEW034 SCT090 89.6 73.6 59% 98 29.96 0.0
05 11:15 SW 5 10.00 Mostly Cloudy SCT028 BKN034 89.1 74.1 61% 98 29.96 0.0
05 10:55 Vrbl 6 10.00 Mostly Cloudy BKN029 88.5 75.6 66% 99 29.96 0.0
05 10:35 Calm 10.00 Partly Cloudy FEW022 SCT029 SCT039 86.4 76.3 72% 97 29.96 0.0
05 10:15 Vrbl 5 10.00 A Few Clouds FEW021 85.3 77.2 77% 96 29.96 0.0
05 09:55 S 6 10.00 A Few Clouds FEW012 84.7 78.4 81% 97 29.95 0.0
05 09:35 Vrbl 3 10.00 A Few Clouds FEW012 84.2 78.8 84% 96 29.96 0.0
05 09:15 Calm 10.00 Fair CLR 82.6 78.8 88% 93 29.96 0.0
05 08:55 Calm 10.00 Fair CLR 80.2 77.9 93% 87 29.96 0.0
05 08:35 Calm 9.00 Fair CLR 79.5 77.7 94% 85 29.95 0.0
05 08:15 Calm 9.00 A Few Clouds FEW016 77.9 77 97% 80 29.95 0.0
05 07:55 Calm 9.00 Fair CLR 76.1 75.7 99% 75 29.94 0.0
05 06:35 Calm 10.00 Fair CLR 75.9 75.6 99% 75 29.92 0.0
05 06:15 Calm 10.00 Fair CLR 75.7 75.4 99% 74 29.91 0.0
05 05:55 Calm 10.00 Fair CLR 75.9 75.6 99% 75 29.91 0.0
05 05:35 Calm 10.00 Fair CLR 76.1 75.6 98% 75 29.91 0.0
05 05:15 Calm 10.00 Fair CLR 76.1 75.6 98% 75 29.91 0.0
05 04:55 Calm 10.00 Fair CLR 76.1 75.6 98% 75 29.91 0.0
05 04:35 Calm 9.00 Fair CLR 76.1 75.6 98% 75 29.91 0.0
05 04:15 Calm 9.00 Fair CLR 76.3 75.7 98% 76 29.91 0.0
05 03:55 Calm 9.00 Fair CLR 77.2 75.9 96% 78 29.91 0.0
05 03:35 SW 3 9.00 Fair CLR 77.4 76.3 96% 79 29.9 0.0
05 03:15 S 3 9.00 Fair CLR 77.2 75.9 96% 78 29.91 0.0
05 02:55 Calm 9.00 Fair CLR 76.8 75.9 97% 77 29.91 0.0
05 02:35 Calm 10.00 Fair CLR 77.5 75.9 95% 79 29.92 0.0
05 02:15 Calm 10.00 Fair CLR 77.5 75.7 94% 79 29.92 0.0
05 01:55 S 3 10.00 Fair CLR 77.9 75.9 94% 80 29.93 0.0
05 01:35 S 3 10.00 Fair CLR 78.3 75.9 93% 81 29.93 0.0
05 01:15 S 3 10.00 Fair CLR 78.6 75.9 91% 82 29.93 0.0
05 00:55 S 5 10.00 Mostly Cloudy BKN170 79.3 76.1 88 79.3 90% 84 29.93 0.0
05 00:35 S 5 10.00 Overcast OVC170 79.7 75.9 88% 85 29.93 0.0
05 00:15 S 5 10.00 Mostly Cloudy BKN160 79.7 75.6 87% 84 29.93 0.0
04 23:55 S 5 10.00 Fair CLR 80.1 75.6 86% 85 29.93 0.0
04 23:35 S 5 10.00 Fair CLR 80.2 75.2 85% 85 29.94 0.0
04 23:15 SE 7 10.00 Fair CLR 81 74.8 82% 87 29.94 0.0
04 22:55 SE 6 10.00 Fair CLR 80.8 74.1 80% 86 29.93 0.0
04 22:35 SE 6 10.00 Fair CLR 81.1 74.1 79% 87 29.93 0.0
04 22:15 SE 6 5.00 Fair with Haze CLR 81.3 74.5 80% 87 29.93 0.0
04 21:55 SE 5 10.00 Fair CLR 81.5 74.7 80% 88 29.92 0.0
04 21:35 SE 5 10.00 Fair CLR 81.9 74.8 79% 88 29.92 0.0
04 21:15 SE 3 10.00 Fair CLR 82.2 74.8 78% 89 29.92 0.0
04 20:55 SE 5 10.00 Fair CLR 82.9 74.8 77% 90 29.9 0.0
04 20:35 SE 3 10.00 Fair CLR 83.3 75 76% 91 29.9 0.0
04 20:15 SE 5 10.00 Fair CLR 84.2 75 74% 92 29.9 0.0
04 19:55 SE 6 9.00 Fair CLR 85.6 75 71% 94 29.89 0.0
04 19:35 SE 5 9.00 Fair CLR 86.5 74.8 68% 96 29.89 0.0
04 19:15 SE 8 9.00 Fair CLR 87.3 74.8 67% 97 29.89 0.0
04 18:55 SE 12 9.00 Fair CLR 89.2 74.1 92.8 84.2 61% 98 29.88 0.0 0.01
04 18:35 SE 9 9.00 Fair CLR 89.4 72.5 58% 97 29.88 0.0
04 18:15 SE 5 10.00 Fair CLR 89.6 72.3 57% 97 29.88 0.0
04 17:55 E 6 9.00 Fair CLR 89.1 72.3 58% 96 29.89 0.0
04 17:35 SE 7 10.00 Fair CLR 89.4 73 59% 98 29.89 0.0
04 17:15 SE 8 10.00 Fair CLR 88.2 73 61% 96 29.89 0.0
04 16:55 E 7 10.00 Fair CLR 86.5 73.8 66% 95 29.9 0.0
04 16:35 SE 9 10.00 Fair CLR 85.1 72.9 67% 92 29.91 0.0
04 16:15 SE 7 7.00 Light Rain CLR 84.2 73 69% 91 29.91 0.0
04 15:55 S 10 9.00 Light Rain CLR 85.3 73 67% 92 29.91 0.0 0.01
04 15:35 SE 10 10.00 Fair CLR 88 74.7 65% 97 29.91 0.0
04 15:15 SE 9 10.00 A Few Clouds FEW200 88.3 74.7 64% 98 29.91 0.0
04 14:55 Vrbl 7 10.00 A Few Clouds FEW260 88.5 74.3 63% 98 29.93 0.0
04 14:35 E 12 10.00 Partly Cloudy FEW260 SCT340 89.2 73 59% 97 29.93 0.0
04 14:15 E 9 10.00 Partly Cloudy SCT046 SCT350 92.5 74.7 56% 103 29.93 0.0
04 13:55 E 7 10.00 Partly Cloudy FEW050 SCT120 89.6 73.6 59% 98 29.93 0.0 0.01
04 13:35 Calm 10.00 Partly Cloudy SCT110 89.4 73.2 59% 98 29.94 0.0 0.01
04 13:15 NW 3 9.00 Mostly Cloudy FEW041 BKN049 BKN100 90.1 75.2 62% 101 29.94 0.0 0.01
04 12:55 N 5 10.00 Mostly Cloudy BKN042 BKN130 89.6 74.8 90.9 78.8 62% 100 29.95 0.0
04 12:35 Vrbl 3 10.00 Mostly Cloudy SCT044 BKN130 90.7 74.5 59% 101 29.96 0.0
04 12:15 Vrbl 5 10.00 Mostly Cloudy FEW047 BKN120 89.4 74.5 61% 99 29.96 0.0
04 11:55 SW 5 10.00 Mostly Cloudy FEW030 SCT042 BKN055 BKN075 87.4 75.4 67% 97 29.97 0.0
04 11:35 Vrbl 3 10.00 Mostly Cloudy SCT027 BKN037 BKN120 87.8 75 66% 98 29.97 0.0
04 11:15 SW 5 10.00 Mostly Cloudy BKN025 BKN140 88.5 76.1 67% 100 29.97 0.0
04 10:35 SE 5 10.00 Mostly Cloudy BKN016 86 78.1 77% 98 29.96 0.0
04 10:15 Calm 10.00 Partly Cloudy FEW010 SCT018 84 78.6 84% 96 29.96 0.0
04 09:55 Vrbl 3 10.00 A Few Clouds FEW010 82.9 79.2 88% 94 29.96 0.0
04 09:35 SE 3 9.00 A Few Clouds FEW140 82 79.2 91% 92 29.96 0.0
04 09:15 Calm 9.00 Mostly Cloudy BKN150 81.3 79 93% 90 29.95 0.0
04 08:55 Calm 8.00 Mostly Cloudy SCT110 BKN150 80.4 78.3 93% 87 29.95 0.0
04 08:35 SE 3 9.00 Mostly Cloudy SCT120 BKN150 80.1 78.4 95% 87 29.94 0.0
04 08:15 S 6 9.00 Mostly Cloudy SCT110 BKN150 79.7 78.3 95% 86 29.93 0.0
04 07:55 S 5 10.00 A Few Clouds FEW150 79.3 77.9 95% 84 29.93 0.0
04 07:35 SW 5 10.00 Mostly Cloudy FEW120 BKN150 79 77.7 96% 83 29.92 0.0
04 07:15 S 6 9.00 Partly Cloudy SCT120 78.8 77.9 97% 83 29.92 0.0
04 06:55 S 5 9.00 Light Rain CLR 79.2 77.9 80.2 78.8 96% 84 29.91 0.0 0.02
04 06:35 S 5 10.00 Fair CLR 79.5 77.9 95% 85 29.92 0.0
04 06:15 S 5 10.00 A Few Clouds FEW120 79.2 77.5 95% 84 29.92 0.0
04 05:55 S 7 10.00 A Few Clouds FEW120 79.7 77.7 94% 85 29.92 0.0 0.02
04 05:35 S 6 8.00 A Few Clouds FEW085 79.3 77.9 95% 84 29.92 0.0 0.02
04 05:15 SE 3 5.00 Light Rain Fog/Mist FEW018 BKN085 BKN100 79 77.5 95% 83 29.92 0.0 0.01
04 04:55 SE 5 10.00 Overcast BKN100 OVC130 79 77.2 94% 83 29.91 0.0
04 04:35 SE 3 10.00 Overcast FEW018 OVC130 79 77.2 94% 83 29.91 0.0
04 04:15 E 3 10.00 Overcast OVC140 79 77 94% 83 29.91 0.0
04 03:55 E 5 10.00 Overcast FEW020 SCT027 BKN032 OVC140 79 76.8 93% 83 29.91 0.0
04 03:35 E 3 10.00 Overcast FEW019 SCT025 BKN031 BKN140 OVC170 79.2 76.6 92% 84 29.91 0.0
04 03:15 E 3 10.00 Overcast SCT024 BKN140 BKN170 OVC220 79.5 76.6 91% 84 29.9 0.0
04 02:55 Calm 10.00 Overcast SCT022 BKN100 BKN180 OVC220 79.3 76.5 91% 84 29.91 0.0
04 02:35 Calm 10.00 Overcast FEW021 BKN100 OVC180 79.5 76.3 90% 84 29.91 0.0
04 02:15 Calm 10.00 Overcast FEW100 SCT150 OVC180 79.7 76.3 89% 85 29.91 0.0
04 01:55 Calm 10.00 Overcast SCT100 BKN150 OVC180 79.7 76.5 90% 85 29.92 0.0
04 01:35 SE 3 10.00 Overcast SCT100 BKN150 OVC180 79.7 76.3 89% 85 29.92 0.0
04 01:15 S 3 10.00 Overcast OVC150 79.9 75.9 88% 85 29.92 0.0
04 00:55 S 5 10.00 Mostly Cloudy FEW150 BKN180 80.2 76.1 81.3 80.2 87% 86 29.92 0.0
04 00:35 SE 5 10.00 Mostly Cloudy SCT150 BKN180 80.4 75.9 86% 86 29.91 0.0
04 00:15 S 6 10.00 Mostly Cloudy BKN180 80.6 75.7 85% 86 29.91 0.0
03 23:55 SE 5 10.00 Mostly Cloudy FEW150 BKN180 80.4 75.9 86% 86 29.91 0.0
03 23:35 SE 6 10.00 Overcast FEW150 OVC180 80.4 75.9 86% 86 29.91 0.0
03 23:15 SE 6 10.00 Overcast SCT150 OVC170 80.6 75.7 85% 86 29.91 0.0
03 22:55 SE 6 10.00 Overcast OVC170 80.6 75.7 85% 86 29.91 0.0
03 22:35 SE 7 10.00 Overcast OVC160 80.6 75.7 85% 86 29.91 0.0
03 22:15 SE 7 10.00 Overcast OVC160 80.8 75.6 84% 87 29.91 0.0
03 21:55 SE 7 10.00 Overcast OVC150 80.8 75.4 84% 87 29.9 0.0
03 21:35 SE 7 10.00 Overcast OVC150 80.8 75.6 84% 87 29.9 0.0
03 21:15 SE 8 10.00 Overcast OVC160 80.8 75.4 84% 87 29.89 0.0
03 20:55 SE 9 10.00 Overcast OVC180 80.6 75 83% 86 29.88 0.0
03 20:35 SE 7 10.00 Overcast BKN160 OVC180 80.4 75.4 85% 86 29.88 0.0
03 20:15 SE 6 10.00 Overcast BKN160 OVC180 80.2 75.4 85% 86 29.88 0.0
03 19:55 Vrbl 6 10.00 Overcast OVC180 80.6 75 83% 86 29.88 0.0
03 19:35 SE 9 10.00 Mostly Cloudy BKN180 80.8 74.8 82% 86 29.88 0.0
03 19:15 SE 12 10.00 Mostly Cloudy BKN180 81.1 74.7 81% 87 29.87 0.0
03 18:55 SE 13 10.00 Overcast OVC180 81.5 74.5 97.5 81.1 79% 87 29.88 0.0
03 18:35 SE 8 10.00 Overcast OVC180 81.9 74.8 79% 88 29.88 0.0
03 18:15 Vrbl 6 10.00 Overcast OVC180 82 74.8 79% 89 29.87 0.0
03 17:55 SE 10 10.00 Mostly Cloudy BKN170 81.7 74.1 78% 88 29.87 0.0
03 17:35 SE 8 10.00 Partly Cloudy FEW160 SCT180 81.3 74.1 79% 87 29.87 0.0
03 17:15 SE 7 10.00 Partly Cloudy SCT180 81.7 73.8 77% 87 29.87 0.0
03 16:55 SE 10 G 17 10.00 A Few Clouds FEW160 82.2 74.3 77% 89 29.87 0.0
03 16:35 SE 12 G 21 10.00 A Few Clouds FEW160 81.9 74.7 79% 88 29.88 0.0
03 16:15 SE 14 G 28 10.00 Partly Cloudy FEW060 SCT080 SCT340 82.4 73.9 76% 89 29.88 0.0
03 15:35 E 8 10.00 Mostly Cloudy BKN065 94.8 71.6 47% 103 29.87 0.0
03 15:15 NE 8 10.00 Mostly Cloudy FEW065 BKN190 96.4 70 42% 103 29.87 0.0
03 14:55 Vrbl 5 10.00 Mostly Cloudy BKN100 BKN190 97 69.8 41% 104 29.88 0.0
03 14:35 Vrbl 5 10.00 Mostly Cloudy BKN100 BKN200 95.9 69.6 43% 102 29.88 0.0
03 14:15 S 8 10.00 A Few Clouds FEW100 96.3 71.4 45% 104 29.89 0.0
03 13:55 S 6 10.00 A Few Clouds FEW050 95.2 71.6 47% 103 29.9 0.0
03 13:35 Calm 10.00 Partly Cloudy SCT050 SCT100 93.9 71.2 48% 101 29.9 0.0
03 13:15 Vrbl 5 10.00 A Few Clouds FEW100 94.8 71.8 47% 103 29.91 0.0
03 12:55 S 12 10.00 Overcast FEW046 OVC100 93.7 71.6 94.1 80.6 49% 101 29.92 0.0
03 12:35 S 8 10.00 Mostly Cloudy BKN045 BKN100 94.1 72.5 50% 103 29.93 0.0
03 12:15 S 10 G 16 10.00 Mostly Cloudy SCT043 BKN200 93 73 52% 102 29.94 0.0
03 11:55 SW 8 G 17 10.00 Partly Cloudy SCT039 91 73.8 57% 100 29.93 0.0
03 11:35 S 13 10.00 Fair CLR 90.9 73.9 58% 100 29.94 0.0
03 11:15 S 15 10.00 Fair CLR 90.9 73.6 57% 100 29.94 0.0
03 10:55 S 13 10.00 A Few Clouds FEW028 89.4 74.5 61% 99 29.94 0.0
03 10:35 S 16 10.00 Partly Cloudy SCT027 SCT170 88.9 75.2 64% 99 29.94 0.0
03 10:15 SW 9 10.00 Mostly Cloudy SCT025 BKN170 88 75.9 68% 99 29.94 0.0
03 09:55 S 13 10.00 Partly Cloudy SCT024 86.2 76.1 72% 96 29.94 0.0
03 09:35 SW 10 10.00 Overcast SCT022 BKN027 OVC100 85.5 77 76% 96 29.95 0.0
03 09:15 S 10 10.00 Overcast SCT019 OVC100 83.8 76.8 79% 93 29.95 0.0
03 08:55 S 8 10.00 Mostly Cloudy BKN018 BKN025 83.5 78.3 84% 94 29.95 0.0
03 08:35 S 10 9.00 Partly Cloudy SCT017 83.3 78.3 85% 94 29.94 0.0
03 08:15 S 6 8.00 Mostly Cloudy SCT017 BKN170 82 78.1 88% 91 29.95 0.0
03 07:55 S 7 9.00 Mostly Cloudy BKN017 BKN170 81.3 77.9 89% 89 29.93 0.0
03 07:35 S 6 9.00 Mostly Cloudy BKN017 BKN025 81.1 77.9 90% 89 29.93 0.0
03 07:15 S 6 9.00 Mostly Cloudy BKN019 BKN025 80.8 77.9 91% 88 29.93 0.0
03 06:55 S 6 10.00 Fair CLR 80.6 77.9 81.1 78.4 92% 88 29.93 0.0
03 06:35 S 7 10.00 Fair CLR 80.8 77.9 91% 88 29.92 0.0
03 06:15 S 8 10.00 Partly Cloudy SCT150 80.8 78.1 92% 88 29.92 0.0
03 05:55 S 6 10.00 Overcast OVC160 80.8 78.3 92% 88 29.92 0.0
03 05:35 S 6 10.00 Overcast SCT150 OVC170 80.8 78.3 92% 88 29.92 0.0
03 05:15 S 5 10.00 Overcast FEW018 BKN140 OVC170 80.8 78.3 92% 88 29.92 0.0
03 04:55 S 7 10.00 Overcast FEW130 OVC170 81 78.1 91% 89 29.92 0.0
03 04:35 S 7 10.00 Overcast FEW017 OVC170 81 77.9 90% 88 29.92 0.0
03 04:15 S 7 G 33 10.00 Overcast SCT017 SCT130 OVC160 81.1 77.9 90% 89 29.92 0.0
03 03:55 S 8 10.00 Overcast OVC160 81 77.7 90% 88 29.92 0.0
03 03:35 S 7 10.00 Overcast FEW140 OVC170 80.8 77.5 90% 88 29.92 0.0
03 03:15 S 7 10.00 Mostly Cloudy FEW130 BKN170 80.8 77.5 90% 88 29.92 0.0
03 02:55 S 8 10.00 Fair CLR 80.6 77.5 90% 87 29.91 0.0
03 02:35 S 8 10.00 Fair CLR 80.8 77.5 90% 88 29.91 0.0
03 02:15 S 7 10.00 Partly Cloudy SCT140 80.6 77.4 90% 87 29.92 0.0
03 01:55 S 6 10.00 Partly Cloudy SCT140 79.7 76.8 91% 85 29.92 0.0
03 01:35 S 8 10.00 Partly Cloudy SCT090 79.3 76.3 90% 84 29.92 0.0
03 01:15 SE 5 10.00 Mostly Cloudy BKN085 78.8 75.7 90% 82 29.93 0.0
03 00:55 S 7 10.00 A Few Clouds FEW150 78.4 75.4 98.6 77.4 90% 82 29.93 0.0 0.76
03 00:35 S 6 10.00 A Few Clouds FEW150 78.3 75 90% 81 29.93 0.0
03 00:15 S 8 10.00 A Few Clouds FEW160 78.1 74.7 89% 81 29.93 0.0
02 23:55 S 7 10.00 Mostly Cloudy BKN170 77.7 73.9 88% 80 29.93 0.0
02 23:35 SE 7 10.00 Overcast OVC160 77.9 73.4 86% 80 29.92 0.0
02 23:15 SE 7 10.00 Overcast SCT120 OVC160 77.9 73.9 88% 80 29.93 0.0
02 22:55 SE 10 10.00 Overcast OVC120 77.7 74.5 90% 80 29.93 0.0 0.34
02 22:35 SE 9 10.00 Light Rain SCT065 OVC130 77.9 73.8 87% 80 29.93 0.0 0.34
02 22:15 E 13 G 17 4.00 Light Rain Fog/Mist FEW036 OVC075 78.1 74.8 90% 81 29.93 0.0 0.32
02 21:55 NE 12 G 23 6.00 Light Rain FEW017 SCT037 BKN045 BKN055 OVC075 79.7 75.2 86% 84 29.96 0.0 0.42 0.42
02 21:35 N 10 9.00 Light Rain BKN050 OVC075 79.9 75.7 87% 85 29.94 0.0 0.4
02 21:15 Vrbl 6 1.75 Heavy Rain BKN047 OVC060 84 72.9 69% 90 29.9 0.0 0.2
02 20:55 NE 10 G 18 10.00 Overcast BKN060 BKN080 OVC110 85.6 72.9 66% 92 29.89 0.0
02 20:35 Vrbl 7 10.00 Light Rain SCT080 BKN110 OVC130 91.9 69.4 48% 97 29.86 0.0
02 20:15 S 12 G 23 10.00 Mostly Cloudy SCT090 BKN140 93 69.8 47% 99 29.84 0.0
02 19:55 SE 9 9.00 Mostly Cloudy BKN085 94.3 71.6 48% 102 29.83 0.0
02 19:35 SE 12 10.00 Partly Cloudy SCT090 96.4 68.9 41% 102 29.83 0.0
02 19:15 SE 3 10.00 Fair CLR 97.7 66.9 37% 102 29.83 0.0
Date Time (cdt) Wind (mph) Vis. (mi.) Weather Sky Cond. Air Dwpt Max. Min. Relative Humidity Wind Chill (°F) Heat Index (°F) altimeter (in) sea level (mb) 1 hr 3 hr 6 hr
6 hour
Temperature (ºF) Pressure Precipitation (in)